23:55
Airports
Links
Donate
Help keep this website running!
PayPal
Bitcoin
METAR
PHJR 242353Z 06010KT 10SM FEW042 BKN055 25/14 A3000 RMK AO2 SLP164 T02500144 10267 20211 58020
Current Weather Conditions at PHJR
VFR 23:53:00 24-11-17
Automated station
Altimeter:30.00 hg
Temp:25.0°c 77°f
Dew point:14.4°c 57°f
Wind:10 knots, 11.5 mph, 5 m/s, from 60°
Visibility:10.0 statute miles
5500(BKN) Broken
4200(FEW) A few
Past METAR reports
VFR 22:53:00 24-11-17
Automated station
Altimeter:30.02 hg
Temp:23.9°c 73°f
Dew point:15.0°c 59°f
Wind:10 knots, 11.5 mph, 5 m/s, from 60°
Visibility:10.0 statute miles
5000(OVC) Overcast
PHJR 242253Z 06010G19KT 10SM OVC050 24/15 A3002 RMK AO2 SLP173 T02390150
VFR 21:53:00 24-11-17
Automated station
Altimeter:30.04 hg
Temp:26.1°c 79°f
Dew point:12.8°c 54°f
Wind:6 knots, 6.9 mph, 3 m/s,
Variable direction
Visibility:10.0 statute miles
5000(SCT) Scattered
PHJR 242153Z VRB06KT 10SM SCT050 26/13 A3004 RMK AO2 SLP178 T02610128
VFR 20:53:00 24-11-17
Automated station
Altimeter:30.06 hg
Temp:25.0°c 77°f
Dew point:13.3°c 55°f
Wind:8 knots, 9.2 mph, 4 m/s, from 50°
Visibility:10.0 statute miles
4600(SCT) Scattered
PHJR 242053Z 05008G17KT 010V080 10SM SCT046 25/13 A3006 RMK AO2 SLP185 T02500133 58003
VFR 19:53:00 24-11-17
Automated station
Altimeter:30.06 hg
Temp:24.4°c 75°f
Dew point:14.4°c 57°f
Wind:10 knots, 11.5 mph, 5 m/s, from 50°
Visibility:10.0 statute miles
4600(SCT) Scattered
PHJR 241953Z 05010G23KT 020V080 10SM SCT046 24/14 A3006 RMK AO2 SLP186 T02440144
VFR 18:53:00 24-11-17
Automated station
Altimeter:30.07 hg
Temp:21.1°c 70°f
Dew point:16.7°c 61°f
Wind:6 knots, 6.9 mph, 3 m/s, from 60°
Visibility:8.0 statute miles
4800(BKN) Broken
4100(BKN) Broken
PHJR 241853Z 06006KT 8SM BKN041 BKN048 21/17 A3007 RMK AO2 SLP189 T02110167
TAF
PHJR 242338Z 2500/2524 04012G20KT P6SM BKN050 FM250500 04007KT P6SM FEW050 FM252000 05013G22KT P6SM FEW025 SCT050
Forecast at PHJR
00:00 25-11-17 to 05:00 25-11-17
Wind:12 Knots from 40°
Visibility:6.21 statute miles
5000BKN Broken
FM 05:00 25-11-17 to 20:00 25-11-17
Wind:7 Knots from 40°
Visibility:6.21 statute miles
5000FEW A few
FM 20:00 25-11-17 to 00:00 26-11-17
Wind:13 Knots from 50°
Visibility:6.21 statute miles
2500FEW A few
5000SCT Scattered